sensor_id;sensor_type;location;lat;lon;timestamp;P1;durP1;ratioP1;P2;durP2;ratioP2
74945;SDS011;63509;45.250;38.102;2023-04-24T00:00:28;6.80;;;4.53;;
74945;SDS011;63509;45.250;38.102;2023-04-24T00:02:55;7.30;;;4.82;;
74945;SDS011;63509;45.250;38.102;2023-04-24T00:05:22;11.40;;;4.70;;
74945;SDS011;63509;45.250;38.102;2023-04-24T00:07:48;7.13;;;4.10;;
74945;SDS011;63509;45.250;38.102;2023-04-24T00:10:14;6.60;;;3.95;;
74945;SDS011;63509;45.250;38.102;2023-04-24T00:12:40;5.85;;;3.92;;
74945;SDS011;63509;45.250;38.102;2023-04-24T00:15:06;14.70;;;4.70;;
74945;SDS011;63509;45.250;38.102;2023-04-24T00:17:33;9.48;;;4.68;;
74945;SDS011;63509;45.250;38.102;2023-04-24T00:19:59;6.53;;;4.30;;
74945;SDS011;63509;45.250;38.102;2023-04-24T00:22:26;6.15;;;4.43;;
74945;SDS011;63509;45.250;38.102;2023-04-24T00:24:53;5.05;;;3.58;;
74945;SDS011;63509;45.250;38.102;2023-04-24T00:27:19;6.70;;;4.05;;
74945;SDS011;63509;45.250;38.102;2023-04-24T00:29:46;6.75;;;4.13;;
74945;SDS011;63509;45.250;38.102;2023-04-24T00:32:12;5.78;;;3.72;;
74945;SDS011;63509;45.250;38.102;2023-04-24T00:34:39;7.13;;;4.75;;
74945;SDS011;63509;45.250;38.102;2023-04-24T00:37:05;8.43;;;4.05;;
74945;SDS011;63509;45.250;38.102;2023-04-24T00:39:31;10.80;;;4.45;;
74945;SDS011;63509;45.250;38.102;2023-04-24T00:41:57;9.70;;;4.38;;
74945;SDS011;63509;45.250;38.102;2023-04-24T00:44:24;6.32;;;3.95;;
74945;SDS011;63509;45.250;38.102;2023-04-24T00:46:50;5.97;;;4.32;;
74945;SDS011;63509;45.250;38.102;2023-04-24T00:49:20;8.30;;;4.68;;
74945;SDS011;63509;45.250;38.102;2023-04-24T00:51:47;9.10;;;3.90;;
74945;SDS011;63509;45.250;38.102;2023-04-24T00:54:15;8.80;;;4.43;;
74945;SDS011;63509;45.250;38.102;2023-04-24T00:56:41;6.20;;;4.68;;
74945;SDS011;63509;45.250;38.102;2023-04-24T00:59:09;8.88;;;4.30;;
74945;SDS011;63509;45.250;38.102;2023-04-24T01:01:35;6.50;;;3.85;;
74945;SDS011;63509;45.250;38.102;2023-04-24T01:04:02;6.75;;;4.28;;
74945;SDS011;63509;45.250;38.102;2023-04-24T01:06:29;7.00;;;3.70;;
74945;SDS011;63509;45.250;38.102;2023-04-24T01:08:57;10.07;;;4.40;;
74945;SDS011;63509;45.250;38.102;2023-04-24T01:11:24;8.70;;;3.95;;
74945;SDS011;63509;45.250;38.102;2023-04-24T01:13:51;6.78;;;4.10;;
74945;SDS011;63509;45.250;38.102;2023-04-24T01:16:17;8.63;;;4.63;;
74945;SDS011;63509;45.250;38.102;2023-04-24T01:18:46;9.48;;;4.55;;
74945;SDS011;63509;45.250;38.102;2023-04-24T01:21:15;8.95;;;4.70;;
74945;SDS011;63509;45.250;38.102;2023-04-24T01:23:45;7.47;;;4.22;;
74945;SDS011;63509;45.250;38.102;2023-04-24T01:26:12;6.40;;;4.72;;
74945;SDS011;63509;45.250;38.102;2023-04-24T01:28:39;6.18;;;3.95;;
74945;SDS011;63509;45.250;38.102;2023-04-24T01:31:05;6.20;;;4.10;;
74945;SDS011;63509;45.250;38.102;2023-04-24T01:33:32;14.65;;;5.30;;
74945;SDS011;63509;45.250;38.102;2023-04-24T01:35:58;8.38;;;4.65;;
74945;SDS011;63509;45.250;38.102;2023-04-24T01:38:25;9.00;;;4.70;;
74945;SDS011;63509;45.250;38.102;2023-04-24T01:40:51;8.07;;;4.15;;
74945;SDS011;63509;45.250;38.102;2023-04-24T01:43:18;7.45;;;4.68;;
74945;SDS011;63509;45.250;38.102;2023-04-24T01:45:44;10.15;;;4.63;;
74945;SDS011;63509;45.250;38.102;2023-04-24T01:48:11;6.50;;;4.28;;
74945;SDS011;63509;45.250;38.102;2023-04-24T01:50:38;6.95;;;4.55;;
74945;SDS011;63509;45.250;38.102;2023-04-24T01:53:04;8.13;;;4.97;;
74945;SDS011;63509;45.250;38.102;2023-04-24T01:55:30;9.30;;;4.30;;
74945;SDS011;63509;45.250;38.102;2023-04-24T01:57:56;8.27;;;4.18;;
74945;SDS011;63509;45.250;38.102;2023-04-24T02:00:25;6.38;;;3.85;;
74945;SDS011;63509;45.250;38.102;2023-04-24T02:02:52;7.05;;;4.57;;
74945;SDS011;63509;45.250;38.102;2023-04-24T02:05:18;8.27;;;4.40;;
74945;SDS011;63509;45.250;38.102;2023-04-24T02:07:44;9.43;;;4.70;;
74945;SDS011;63509;45.250;38.102;2023-04-24T02:10:10;6.53;;;4.25;;
74945;SDS011;63509;45.250;38.102;2023-04-24T02:12:41;6.30;;;4.40;;
74945;SDS011;63509;45.250;38.102;2023-04-24T02:15:07;6.88;;;3.92;;
74945;SDS011;63509;45.250;38.102;2023-04-24T02:17:36;6.63;;;4.07;;
74945;SDS011;63509;45.250;38.102;2023-04-24T02:20:03;6.65;;;4.32;;
74945;SDS011;63509;45.250;38.102;2023-04-24T02:22:30;7.60;;;4.50;;
74945;SDS011;63509;45.250;38.102;2023-04-24T02:25:00;6.95;;;4.45;;
74945;SDS011;63509;45.250;38.102;2023-04-24T02:27:26;7.07;;;4.30;;
74945;SDS011;63509;45.250;38.102;2023-04-24T02:29:52;7.93;;;4.80;;
74945;SDS011;63509;45.250;38.102;2023-04-24T02:32:18;9.82;;;5.38;;
74945;SDS011;63509;45.250;38.102;2023-04-24T02:34:45;7.97;;;4.22;;
74945;SDS011;63509;45.250;38.102;2023-04-24T02:37:11;6.78;;;4.53;;
74945;SDS011;63509;45.250;38.102;2023-04-24T02:39:37;6.57;;;4.10;;
74945;SDS011;63509;45.250;38.102;2023-04-24T02:42:03;10.00;;;4.60;;
74945;SDS011;63509;45.250;38.102;2023-04-24T02:44:29;6.95;;;4.20;;
74945;SDS011;63509;45.250;38.102;2023-04-24T02:46:55;9.27;;;4.95;;
74945;SDS011;63509;45.250;38.102;2023-04-24T02:49:22;7.55;;;5.00;;
74945;SDS011;63509;45.250;38.102;2023-04-24T02:51:48;8.40;;;3.97;;
74945;SDS011;63509;45.250;38.102;2023-04-24T02:54:14;7.03;;;4.47;;
74945;SDS011;63509;45.250;38.102;2023-04-24T02:56:40;6.90;;;4.32;;
74945;SDS011;63509;45.250;38.102;2023-04-24T02:59:07;7.65;;;4.43;;
74945;SDS011;63509;45.250;38.102;2023-04-24T03:01:33;10.07;;;4.82;;
74945;SDS011;63509;45.250;38.102;2023-04-24T03:03:59;20.52;;;4.35;;
74945;SDS011;63509;45.250;38.102;2023-04-24T03:06:25;7.80;;;3.92;;
74945;SDS011;63509;45.250;38.102;2023-04-24T03:08:52;10.00;;;4.60;;
74945;SDS011;63509;45.250;38.102;2023-04-24T03:11:18;6.80;;;4.53;;
74945;SDS011;63509;45.250;38.102;2023-04-24T03:13:45;8.52;;;4.72;;
74945;SDS011;63509;45.250;38.102;2023-04-24T03:16:11;8.40;;;4.90;;
74945;SDS011;63509;45.250;38.102;2023-04-24T03:18:37;7.22;;;4.53;;
74945;SDS011;63509;45.250;38.102;2023-04-24T03:21:07;7.78;;;4.18;;
74945;SDS011;63509;45.250;38.102;2023-04-24T03:23:33;7.95;;;4.82;;
74945;SDS011;63509;45.250;38.102;2023-04-24T03:25:59;9.85;;;4.45;;
74945;SDS011;63509;45.250;38.102;2023-04-24T03:28:26;8.15;;;4.32;;
74945;SDS011;63509;45.250;38.102;2023-04-24T03:30:57;8.23;;;3.70;;
74945;SDS011;63509;45.250;38.102;2023-04-24T03:33:25;9.30;;;4.75;;
74945;SDS011;63509;45.250;38.102;2023-04-24T03:36:01;6.78;;;4.72;;
74945;SDS011;63509;45.250;38.102;2023-04-24T03:38:35;12.27;;;4.35;;
74945;SDS011;63509;45.250;38.102;2023-04-24T03:41:19;6.93;;;5.45;;
74945;SDS011;63509;45.250;38.102;2023-04-24T03:43:50;6.20;;;4.38;;
74945;SDS011;63509;45.250;38.102;2023-04-24T03:46:16;7.18;;;4.68;;
74945;SDS011;63509;45.250;38.102;2023-04-24T03:48:56;9.18;;;5.18;;
74945;SDS011;63509;45.250;38.102;2023-04-24T03:51:35;11.10;;;4.75;;
74945;SDS011;63509;45.250;38.102;2023-04-24T03:54:18;9.88;;;4.50;;
74945;SDS011;63509;45.250;38.102;2023-04-24T03:56:45;13.65;;;4.82;;
74945;SDS011;63509;45.250;38.102;2023-04-24T03:59:12;8.13;;;4.78;;
74945;SDS011;63509;45.250;38.102;2023-04-24T04:01:41;6.40;;;4.78;;
74945;SDS011;63509;45.250;38.102;2023-04-24T04:04:13;7.00;;;4.45;;
74945;SDS011;63509;45.250;38.102;2023-04-24T04:06:40;9.82;;;4.60;;
74945;SDS011;63509;45.250;38.102;2023-04-24T04:09:06;6.65;;;4.60;;
74945;SDS011;63509;45.250;38.102;2023-04-24T04:11:35;7.72;;;4.80;;
74945;SDS011;63509;45.250;38.102;2023-04-24T04:14:01;6.45;;;4.30;;
74945;SDS011;63509;45.250;38.102;2023-04-24T04:16:28;8.73;;;4.47;;
74945;SDS011;63509;45.250;38.102;2023-04-24T04:19:00;8.23;;;4.18;;
74945;SDS011;63509;45.250;38.102;2023-04-24T04:21:29;8.23;;;4.40;;
74945;SDS011;63509;45.250;38.102;2023-04-24T04:24:06;6.80;;;4.20;;
74945;SDS011;63509;45.250;38.102;2023-04-24T04:26:37;8.32;;;4.18;;
74945;SDS011;63509;45.250;38.102;2023-04-24T04:29:07;10.55;;;4.82;;
74945;SDS011;63509;45.250;38.102;2023-04-24T04:31:37;12.70;;;4.30;;
74945;SDS011;63509;45.250;38.102;2023-04-24T04:34:08;6.45;;;4.35;;
74945;SDS011;63509;45.250;38.102;2023-04-24T04:36:35;6.38;;;4.13;;
74945;SDS011;63509;45.250;38.102;2023-04-24T04:39:13;8.00;;;4.38;;
74945;SDS011;63509;45.250;38.102;2023-04-24T04:41:50;8.68;;;4.43;;
74945;SDS011;63509;45.250;38.102;2023-04-24T04:44:19;8.05;;;4.32;;
74945;SDS011;63509;45.250;38.102;2023-04-24T04:46:46;5.30;;;3.55;;
74945;SDS011;63509;45.250;38.102;2023-04-24T04:49:20;7.28;;;4.15;;
74945;SDS011;63509;45.250;38.102;2023-04-24T04:51:47;12.00;;;4.28;;
74945;SDS011;63509;45.250;38.102;2023-04-24T04:54:14;6.88;;;4.53;;
74945;SDS011;63509;45.250;38.102;2023-04-24T04:56:41;6.20;;;4.13;;
74945;SDS011;63509;45.250;38.102;2023-04-24T04:59:07;5.72;;;3.60;;
74945;SDS011;63509;45.250;38.102;2023-04-24T05:01:36;8.90;;;3.85;;
74945;SDS011;63509;45.250;38.102;2023-04-24T05:04:02;7.97;;;4.13;;
74945;SDS011;63509;45.250;38.102;2023-04-24T05:06:28;5.78;;;3.30;;
74945;SDS011;63509;45.250;38.102;2023-04-24T05:08:56;7.45;;;3.95;;
74945;SDS011;63509;45.250;38.102;2023-04-24T05:11:42;19.67;;;4.82;;
74945;SDS011;63509;45.250;38.102;2023-04-24T05:14:09;9.50;;;3.97;;
74945;SDS011;63509;45.250;38.102;2023-04-24T05:16:37;9.18;;;4.05;;
74945;SDS011;63509;45.250;38.102;2023-04-24T05:19:06;10.93;;;4.32;;
74945;SDS011;63509;45.250;38.102;2023-04-24T05:21:35;14.30;;;3.90;;
74945;SDS011;63509;45.250;38.102;2023-04-24T05:24:02;11.57;;;4.65;;
74945;SDS011;63509;45.250;38.102;2023-04-24T05:26:43;14.82;;;4.57;;
74945;SDS011;63509;45.250;38.102;2023-04-24T05:29:11;5.63;;;3.70;;
74945;SDS011;63509;45.250;38.102;2023-04-24T05:31:37;6.97;;;4.22;;
74945;SDS011;63509;45.250;38.102;2023-04-24T05:34:04;11.13;;;4.50;;
74945;SDS011;63509;45.250;38.102;2023-04-24T05:36:31;18.85;;;4.80;;
74945;SDS011;63509;45.250;38.102;2023-04-24T05:38:57;8.75;;;4.43;;
74945;SDS011;63509;45.250;38.102;2023-04-24T05:41:24;9.10;;;4.22;;
74945;SDS011;63509;45.250;38.102;2023-04-24T05:43:50;10.93;;;4.13;;
74945;SDS011;63509;45.250;38.102;2023-04-24T05:46:16;12.65;;;4.63;;
74945;SDS011;63509;45.250;38.102;2023-04-24T05:48:43;13.40;;;4.93;;
74945;SDS011;63509;45.250;38.102;2023-04-24T05:51:09;10.27;;;4.53;;
74945;SDS011;63509;45.250;38.102;2023-04-24T05:53:36;15.45;;;5.07;;
74945;SDS011;63509;45.250;38.102;2023-04-24T05:56:02;10.65;;;3.33;;
74945;SDS011;63509;45.250;38.102;2023-04-24T05:58:29;15.38;;;4.70;;
74945;SDS011;63509;45.250;38.102;2023-04-24T06:00:55;10.15;;;4.65;;
74945;SDS011;63509;45.250;38.102;2023-04-24T06:03:23;11.73;;;4.32;;
74945;SDS011;63509;45.250;38.102;2023-04-24T06:05:52;9.32;;;4.45;;
74945;SDS011;63509;45.250;38.102;2023-04-24T06:08:20;14.02;;;4.57;;
74945;SDS011;63509;45.250;38.102;2023-04-24T06:10:48;12.93;;;4.07;;
74945;SDS011;63509;45.250;38.102;2023-04-24T06:13:15;9.55;;;4.40;;
74945;SDS011;63509;45.250;38.102;2023-04-24T06:15:53;11.35;;;3.40;;
74945;SDS011;63509;45.250;38.102;2023-04-24T06:18:29;6.25;;;4.10;;
74945;SDS011;63509;45.250;38.102;2023-04-24T06:20:56;8.77;;;2.90;;
74945;SDS011;63509;45.250;38.102;2023-04-24T06:23:22;11.27;;;3.58;;
74945;SDS011;63509;45.250;38.102;2023-04-24T06:25:48;8.73;;;3.03;;
74945;SDS011;63509;45.250;38.102;2023-04-24T06:28:15;7.28;;;3.58;;
74945;SDS011;63509;45.250;38.102;2023-04-24T06:30:41;5.72;;;3.28;;
74945;SDS011;63509;45.250;38.102;2023-04-24T06:33:07;11.73;;;4.07;;
74945;SDS011;63509;45.250;38.102;2023-04-24T06:35:35;6.63;;;3.00;;
74945;SDS011;63509;45.250;38.102;2023-04-24T06:38:03;5.38;;;3.05;;
74945;SDS011;63509;45.250;38.102;2023-04-24T06:40:29;9.70;;;3.70;;
74945;SDS011;63509;45.250;38.102;2023-04-24T06:42:55;8.75;;;3.70;;
74945;SDS011;63509;45.250;38.102;2023-04-24T06:45:23;6.82;;;2.88;;
74945;SDS011;63509;45.250;38.102;2023-04-24T06:47:49;6.78;;;3.03;;
74945;SDS011;63509;45.250;38.102;2023-04-24T06:50:15;12.23;;;3.20;;
74945;SDS011;63509;45.250;38.102;2023-04-24T06:52:42;15.15;;;3.38;;
74945;SDS011;63509;45.250;38.102;2023-04-24T06:55:08;7.63;;;3.83;;
74945;SDS011;63509;45.250;38.102;2023-04-24T06:57:34;9.55;;;3.80;;
74945;SDS011;63509;45.250;38.102;2023-04-24T07:00:00;11.63;;;4.40;;
74945;SDS011;63509;45.250;38.102;2023-04-24T07:02:26;10.25;;;3.45;;
74945;SDS011;63509;45.250;38.102;2023-04-24T07:04:52;7.45;;;3.55;;
74945;SDS011;63509;45.250;38.102;2023-04-24T07:07:18;11.05;;;3.17;;
74945;SDS011;63509;45.250;38.102;2023-04-24T07:09:44;9.82;;;3.38;;
74945;SDS011;63509;45.250;38.102;2023-04-24T07:12:11;19.48;;;4.20;;
74945;SDS011;63509;45.250;38.102;2023-04-24T07:14:37;7.72;;;3.17;;
74945;SDS011;63509;45.250;38.102;2023-04-24T07:17:04;8.20;;;3.55;;
74945;SDS011;63509;45.250;38.102;2023-04-24T07:19:31;13.15;;;3.42;;
74945;SDS011;63509;45.250;38.102;2023-04-24T07:22:01;16.63;;;5.75;;
74945;SDS011;63509;45.250;38.102;2023-04-24T07:24:28;13.43;;;3.88;;
74945;SDS011;63509;45.250;38.102;2023-04-24T07:26:54;10.95;;;3.22;;
74945;SDS011;63509;45.250;38.102;2023-04-24T07:29:20;7.40;;;4.13;;
74945;SDS011;63509;45.250;38.102;2023-04-24T07:31:46;4.65;;;3.10;;
74945;SDS011;63509;45.250;38.102;2023-04-24T07:34:12;6.70;;;3.40;;
74945;SDS011;63509;45.250;38.102;2023-04-24T07:36:38;8.52;;;3.00;;
74945;SDS011;63509;45.250;38.102;2023-04-24T07:39:06;7.65;;;3.67;;
74945;SDS011;63509;45.250;38.102;2023-04-24T07:41:33;7.80;;;3.40;;
74945;SDS011;63509;45.250;38.102;2023-04-24T07:43:59;10.00;;;3.95;;
74945;SDS011;63509;45.250;38.102;2023-04-24T07:46:25;7.60;;;4.30;;
74945;SDS011;63509;45.250;38.102;2023-04-24T07:48:55;5.97;;;3.33;;
74945;SDS011;63509;45.250;38.102;2023-04-24T07:51:21;9.45;;;4.38;;
74945;SDS011;63509;45.250;38.102;2023-04-24T07:53:47;11.02;;;3.40;;
74945;SDS011;63509;45.250;38.102;2023-04-24T07:56:13;6.72;;;3.25;;
74945;SDS011;63509;45.250;38.102;2023-04-24T07:58:39;5.20;;;3.53;;
74945;SDS011;63509;45.250;38.102;2023-04-24T08:01:05;12.45;;;4.65;;
74945;SDS011;63509;45.250;38.102;2023-04-24T08:03:31;12.48;;;3.90;;
74945;SDS011;63509;45.250;38.102;2023-04-24T08:05:58;18.55;;;3.75;;
74945;SDS011;63509;45.250;38.102;2023-04-24T08:08:24;10.48;;;3.70;;
74945;SDS011;63509;45.250;38.102;2023-04-24T08:10:50;15.00;;;4.00;;
74945;SDS011;63509;45.250;38.102;2023-04-24T08:13:16;7.63;;;3.88;;
74945;SDS011;63509;45.250;38.102;2023-04-24T08:15:42;7.88;;;3.38;;
74945;SDS011;63509;45.250;38.102;2023-04-24T08:18:08;7.15;;;4.13;;
74945;SDS011;63509;45.250;38.102;2023-04-24T08:23:02;7.15;;;3.45;;
74945;SDS011;63509;45.250;38.102;2023-04-24T08:25:29;9.18;;;3.78;;
74945;SDS011;63509;45.250;38.102;2023-04-24T08:27:54;6.38;;;3.70;;
74945;SDS011;63509;45.250;38.102;2023-04-24T08:30:21;10.15;;;3.40;;
74945;SDS011;63509;45.250;38.102;2023-04-24T08:32:47;11.70;;;4.22;;
74945;SDS011;63509;45.250;38.102;2023-04-24T08:35:13;10.68;;;3.40;;
74945;SDS011;63509;45.250;38.102;2023-04-24T08:37:39;22.23;;;6.80;;
74945;SDS011;63509;45.250;38.102;2023-04-24T08:40:15;10.88;;;4.43;;
74945;SDS011;63509;45.250;38.102;2023-04-24T08:42:42;10.43;;;3.97;;
74945;SDS011;63509;45.250;38.102;2023-04-24T08:45:10;8.45;;;2.92;;
74945;SDS011;63509;45.250;38.102;2023-04-24T08:47:38;6.03;;;3.15;;
74945;SDS011;63509;45.250;38.102;2023-04-24T08:50:05;7.07;;;3.42;;
74945;SDS011;63509;45.250;38.102;2023-04-24T08:52:33;28.00;;;5.45;;
74945;SDS011;63509;45.250;38.102;2023-04-24T08:55:00;19.58;;;4.47;;
74945;SDS011;63509;45.250;38.102;2023-04-24T08:57:27;26.98;;;4.40;;
74945;SDS011;63509;45.250;38.102;2023-04-24T08:59:53;11.43;;;3.97;;
74945;SDS011;63509;45.250;38.102;2023-04-24T09:02:20;9.85;;;4.10;;
74945;SDS011;63509;45.250;38.102;2023-04-24T09:04:46;13.60;;;4.45;;
74945;SDS011;63509;45.250;38.102;2023-04-24T09:07:14;13.15;;;4.25;;
74945;SDS011;63509;45.250;38.102;2023-04-24T09:09:42;24.10;;;4.35;;
74945;SDS011;63509;45.250;38.102;2023-04-24T09:12:08;14.85;;;4.35;;
74945;SDS011;63509;45.250;38.102;2023-04-24T09:14:35;15.25;;;3.83;;
74945;SDS011;63509;45.250;38.102;2023-04-24T09:17:05;19.80;;;4.55;;
74945;SDS011;63509;45.250;38.102;2023-04-24T09:19:31;18.10;;;4.10;;
74945;SDS011;63509;45.250;38.102;2023-04-24T09:21:57;10.73;;;3.70;;
74945;SDS011;63509;45.250;38.102;2023-04-24T09:24:23;6.70;;;3.60;;
74945;SDS011;63509;45.250;38.102;2023-04-24T09:26:58;4.82;;;3.05;;
74945;SDS011;63509;45.250;38.102;2023-04-24T09:29:27;8.00;;;4.13;;
74945;SDS011;63509;45.250;38.102;2023-04-24T09:31:53;12.15;;;4.45;;
74945;SDS011;63509;45.250;38.102;2023-04-24T09:34:23;8.57;;;3.70;;
74945;SDS011;63509;45.250;38.102;2023-04-24T09:36:51;5.82;;;3.53;;
74945;SDS011;63509;45.250;38.102;2023-04-24T09:39:17;29.65;;;9.43;;
74945;SDS011;63509;45.250;38.102;2023-04-24T09:44:26;24.55;;;5.95;;
74945;SDS011;63509;45.250;38.102;2023-04-24T09:46:54;16.17;;;5.80;;
74945;SDS011;63509;45.250;38.102;2023-04-24T09:49:24;14.82;;;4.65;;
74945;SDS011;63509;45.250;38.102;2023-04-24T09:51:51;20.25;;;5.80;;
74945;SDS011;63509;45.250;38.102;2023-04-24T09:54:18;15.88;;;5.22;;
74945;SDS011;63509;45.250;38.102;2023-04-24T09:56:50;12.57;;;5.38;;
74945;SDS011;63509;45.250;38.102;2023-04-24T09:59:17;24.95;;;8.70;;
74945;SDS011;63509;45.250;38.102;2023-04-24T10:01:44;9.73;;;5.82;;
74945;SDS011;63509;45.250;38.102;2023-04-24T10:04:18;6.82;;;4.55;;
74945;SDS011;63509;45.250;38.102;2023-04-24T10:06:50;11.98;;;5.25;;
74945;SDS011;63509;45.250;38.102;2023-04-24T10:09:17;10.13;;;5.07;;
74945;SDS011;63509;45.250;38.102;2023-04-24T10:11:45;11.77;;;5.95;;
74945;SDS011;63509;45.250;38.102;2023-04-24T10:14:14;8.48;;;6.05;;
74945;SDS011;63509;45.250;38.102;2023-04-24T10:16:42;8.55;;;5.57;;
74945;SDS011;63509;45.250;38.102;2023-04-24T10:19:09;14.05;;;6.15;;
74945;SDS011;63509;45.250;38.102;2023-04-24T10:21:36;10.35;;;6.32;;
74945;SDS011;63509;45.250;38.102;2023-04-24T10:24:10;10.35;;;6.40;;
74945;SDS011;63509;45.250;38.102;2023-04-24T10:26:37;11.45;;;6.72;;
74945;SDS011;63509;45.250;38.102;2023-04-24T10:29:06;12.60;;;6.32;;
74945;SDS011;63509;45.250;38.102;2023-04-24T10:31:36;8.93;;;5.22;;
74945;SDS011;63509;45.250;38.102;2023-04-24T10:34:04;12.13;;;6.35;;
74945;SDS011;63509;45.250;38.102;2023-04-24T10:36:32;13.75;;;7.22;;
74945;SDS011;63509;45.250;38.102;2023-04-24T10:39:00;12.35;;;6.88;;
74945;SDS011;63509;45.250;38.102;2023-04-24T10:41:30;14.85;;;7.72;;
74945;SDS011;63509;45.250;38.102;2023-04-24T10:44:06;12.55;;;7.82;;
74945;SDS011;63509;45.250;38.102;2023-04-24T10:46:37;17.88;;;8.00;;
74945;SDS011;63509;45.250;38.102;2023-04-24T10:49:04;15.13;;;7.93;;
74945;SDS011;63509;45.250;38.102;2023-04-24T10:51:53;14.25;;;7.35;;
74945;SDS011;63509;45.250;38.102;2023-04-24T10:54:23;14.75;;;6.95;;
74945;SDS011;63509;45.250;38.102;2023-04-24T10:56:50;17.27;;;7.97;;
74945;SDS011;63509;45.250;38.102;2023-04-24T10:59:24;11.35;;;6.80;;
74945;SDS011;63509;45.250;38.102;2023-04-24T11:01:54;15.88;;;7.70;;
74945;SDS011;63509;45.250;38.102;2023-04-24T11:04:31;15.10;;;7.68;;
74945;SDS011;63509;45.250;38.102;2023-04-24T11:06:58;13.88;;;7.85;;
74945;SDS011;63509;45.250;38.102;2023-04-24T11:09:28;13.57;;;7.65;;
74945;SDS011;63509;45.250;38.102;2023-04-24T11:12:03;12.98;;;6.97;;
74945;SDS011;63509;45.250;38.102;2023-04-24T11:15:07;14.43;;;7.43;;
74945;SDS011;63509;45.250;38.102;2023-04-24T11:20:04;17.20;;;8.27;;
74945;SDS011;63509;45.250;38.102;2023-04-24T11:22:38;18.38;;;8.15;;
74945;SDS011;63509;45.250;38.102;2023-04-24T11:25:10;16.88;;;8.52;;
74945;SDS011;63509;45.250;38.102;2023-04-24T11:27:40;16.08;;;8.25;;
74945;SDS011;63509;45.250;38.102;2023-04-24T11:30:08;13.55;;;8.52;;
74945;SDS011;63509;45.250;38.102;2023-04-24T11:32:40;17.02;;;9.30;;
74945;SDS011;63509;45.250;38.102;2023-04-24T11:37:41;18.05;;;8.60;;
74945;SDS011;63509;45.250;38.102;2023-04-24T11:40:13;15.30;;;9.00;;
74945;SDS011;63509;45.250;38.102;2023-04-24T11:42:54;17.35;;;10.15;;
74945;SDS011;63509;45.250;38.102;2023-04-24T11:45:24;17.25;;;9.25;;
74945;SDS011;63509;45.250;38.102;2023-04-24T11:47:53;19.15;;;9.15;;
74945;SDS011;63509;45.250;38.102;2023-04-24T11:50:22;19.15;;;10.80;;
74945;SDS011;63509;45.250;38.102;2023-04-24T11:52:51;19.55;;;9.60;;
74945;SDS011;63509;45.250;38.102;2023-04-24T11:57:44;15.95;;;10.35;;
74945;SDS011;63509;45.250;38.102;2023-04-24T12:00:15;14.13;;;9.73;;
74945;SDS011;63509;45.250;38.102;2023-04-24T12:02:42;20.40;;;8.73;;
74945;SDS011;63509;45.250;38.102;2023-04-24T12:05:08;16.73;;;9.40;;
74945;SDS011;63509;45.250;38.102;2023-04-24T12:10:08;12.38;;;7.85;;
74945;SDS011;63509;45.250;38.102;2023-04-24T12:12:34;14.52;;;8.88;;
74945;SDS011;63509;45.250;38.102;2023-04-24T12:15:00;17.60;;;8.90;;
74945;SDS011;63509;45.250;38.102;2023-04-24T12:17:28;17.67;;;9.10;;
74945;SDS011;63509;45.250;38.102;2023-04-24T12:20:03;14.50;;;9.15;;
74945;SDS011;63509;45.250;38.102;2023-04-24T12:22:43;14.98;;;9.20;;
74945;SDS011;63509;45.250;38.102;2023-04-24T12:25:17;19.17;;;9.73;;
74945;SDS011;63509;45.250;38.102;2023-04-24T12:27:44;21.85;;;10.45;;
74945;SDS011;63509;45.250;38.102;2023-04-24T12:30:12;14.18;;;8.32;;
74945;SDS011;63509;45.250;38.102;2023-04-24T12:32:47;16.45;;;9.30;;
74945;SDS011;63509;45.250;38.102;2023-04-24T12:35:22;15.93;;;9.27;;
74945;SDS011;63509;45.250;38.102;2023-04-24T12:37:49;16.38;;;9.30;;
74945;SDS011;63509;45.250;38.102;2023-04-24T12:40:16;15.07;;;8.63;;
74945;SDS011;63509;45.250;38.102;2023-04-24T12:42:45;17.08;;;9.02;;
74945;SDS011;63509;45.250;38.102;2023-04-24T12:45:12;22.13;;;10.77;;
74945;SDS011;63509;45.250;38.102;2023-04-24T12:47:39;16.52;;;10.05;;
74945;SDS011;63509;45.250;38.102;2023-04-24T12:50:07;17.90;;;8.82;;
74945;SDS011;63509;45.250;38.102;2023-04-24T12:52:34;15.93;;;9.73;;
74945;SDS011;63509;45.250;38.102;2023-04-24T12:55:00;19.35;;;9.50;;
74945;SDS011;63509;45.250;38.102;2023-04-24T12:57:27;15.55;;;9.15;;
74945;SDS011;63509;45.250;38.102;2023-04-24T12:59:55;15.40;;;9.52;;
74945;SDS011;63509;45.250;38.102;2023-04-24T13:02:22;13.15;;;8.55;;
74945;SDS011;63509;45.250;38.102;2023-04-24T13:04:49;14.40;;;8.60;;
74945;SDS011;63509;45.250;38.102;2023-04-24T13:07:16;15.55;;;8.18;;
74945;SDS011;63509;45.250;38.102;2023-04-24T13:09:42;18.48;;;9.18;;
74945;SDS011;63509;45.250;38.102;2023-04-24T13:12:09;19.63;;;8.82;;
74945;SDS011;63509;45.250;38.102;2023-04-24T13:14:36;17.98;;;9.80;;
74945;SDS011;63509;45.250;38.102;2023-04-24T13:17:03;20.50;;;10.35;;
74945;SDS011;63509;45.250;38.102;2023-04-24T13:19:34;19.05;;;9.70;;
74945;SDS011;63509;45.250;38.102;2023-04-24T13:22:02;15.50;;;9.13;;
74945;SDS011;63509;45.250;38.102;2023-04-24T13:24:28;17.58;;;9.65;;
74945;SDS011;63509;45.250;38.102;2023-04-24T13:26:54;17.05;;;9.73;;
74945;SDS011;63509;45.250;38.102;2023-04-24T13:29:21;21.00;;;10.02;;
74945;SDS011;63509;45.250;38.102;2023-04-24T13:31:49;15.52;;;9.80;;
74945;SDS011;63509;45.250;38.102;2023-04-24T13:34:16;18.45;;;10.23;;
74945;SDS011;63509;45.250;38.102;2023-04-24T13:36:42;19.77;;;9.85;;
74945;SDS011;63509;45.250;38.102;2023-04-24T13:39:08;14.50;;;8.55;;
74945;SDS011;63509;45.250;38.102;2023-04-24T13:41:36;21.60;;;9.18;;
74945;SDS011;63509;45.250;38.102;2023-04-24T13:44:02;17.95;;;9.63;;
74945;SDS011;63509;45.250;38.102;2023-04-24T13:46:29;15.75;;;9.57;;
74945;SDS011;63509;45.250;38.102;2023-04-24T13:48:55;17.55;;;9.25;;
74945;SDS011;63509;45.250;38.102;2023-04-24T13:51:22;17.05;;;8.43;;
74945;SDS011;63509;45.250;38.102;2023-04-24T13:53:49;16.73;;;9.25;;
74945;SDS011;63509;45.250;38.102;2023-04-24T13:56:15;25.70;;;11.00;;
74945;SDS011;63509;45.250;38.102;2023-04-24T13:58:41;14.43;;;9.35;;
74945;SDS011;63509;45.250;38.102;2023-04-24T14:01:07;15.80;;;8.60;;
74945;SDS011;63509;45.250;38.102;2023-04-24T14:03:33;15.32;;;8.63;;
74945;SDS011;63509;45.250;38.102;2023-04-24T14:05:59;22.15;;;9.68;;
74945;SDS011;63509;45.250;38.102;2023-04-24T14:08:25;16.73;;;9.68;;
74945;SDS011;63509;45.250;38.102;2023-04-24T14:10:51;15.02;;;8.75;;
74945;SDS011;63509;45.250;38.102;2023-04-24T14:13:17;17.08;;;9.15;;
74945;SDS011;63509;45.250;38.102;2023-04-24T14:15:43;27.42;;;13.82;;
74945;SDS011;63509;45.250;38.102;2023-04-24T14:18:09;30.92;;;13.98;;
74945;SDS011;63509;45.250;38.102;2023-04-24T14:20:36;24.15;;;12.65;;
74945;SDS011;63509;45.250;38.102;2023-04-24T14:23:01;25.77;;;14.38;;
74945;SDS011;63509;45.250;38.102;2023-04-24T14:25:28;26.02;;;12.80;;
74945;SDS011;63509;45.250;38.102;2023-04-24T14:27:54;22.90;;;12.13;;
74945;SDS011;63509;45.250;38.102;2023-04-24T14:30:20;21.50;;;12.07;;
74945;SDS011;63509;45.250;38.102;2023-04-24T14:32:46;22.25;;;10.98;;
74945;SDS011;63509;45.250;38.102;2023-04-24T14:35:12;17.75;;;11.32;;
74945;SDS011;63509;45.250;38.102;2023-04-24T14:37:38;19.88;;;11.77;;
74945;SDS011;63509;45.250;38.102;2023-04-24T14:40:06;19.17;;;10.07;;
74945;SDS011;63509;45.250;38.102;2023-04-24T14:42:33;16.85;;;9.52;;
74945;SDS011;63509;45.250;38.102;2023-04-24T14:45:00;14.68;;;9.20;;